createdAt,value
2022-10-15T00:00:40.522Z,100.00
2022-10-15T00:03:07.079Z,100.00
2022-10-15T00:05:36.979Z,100.00
2022-10-15T00:08:03.528Z,100.00
2022-10-15T00:10:30.010Z,100.00
2022-10-15T00:12:56.513Z,100.00
2022-10-15T00:15:23.145Z,100.00
2022-10-15T00:17:49.952Z,100.00
2022-10-15T00:20:16.825Z,100.00
2022-10-15T00:22:43.296Z,100.00
2022-10-15T00:25:10.071Z,100.00
2022-10-15T00:27:37.320Z,100.00
2022-10-15T00:30:05.228Z,100.00
2022-10-15T00:32:31.694Z,100.00
2022-10-15T00:34:58.209Z,100.00
2022-10-15T00:37:24.771Z,100.00
2022-10-15T00:39:51.337Z,100.00
2022-10-15T00:42:17.811Z,100.00
2022-10-15T00:44:54.918Z,100.00
2022-10-15T00:47:24.341Z,100.00
2022-10-15T00:49:56.699Z,100.00
2022-10-15T00:52:32.993Z,100.00
2022-10-15T00:55:11.516Z,100.00
2022-10-15T00:57:38.745Z,100.00
2022-10-15T01:00:09.358Z,100.00
2022-10-15T01:02:35.984Z,100.00
2022-10-15T01:05:03.619Z,100.00
2022-10-15T01:07:30.147Z,100.00
2022-10-15T01:09:56.663Z,100.00
2022-10-15T01:12:48.642Z,100.00
2022-10-15T01:15:30.418Z,100.00
2022-10-15T01:18:06.579Z,100.00
2022-10-15T01:21:03.693Z,100.00
2022-10-15T01:23:53.884Z,100.00
2022-10-15T01:26:52.490Z,100.00
2022-10-15T01:29:18.862Z,100.00
2022-10-15T01:31:50.693Z,100.00
2022-10-15T01:34:37.148Z,100.00
2022-10-15T01:37:09.400Z,100.00
2022-10-15T01:39:51.189Z,100.00
2022-10-15T01:42:48.771Z,100.00
2022-10-15T01:45:20.344Z,100.00
2022-10-15T01:47:51.956Z,100.00
2022-10-15T01:50:20.832Z,100.00
2022-10-15T01:52:49.154Z,100.00
2022-10-15T01:55:16.288Z,100.00
2022-10-15T01:57:44.277Z,100.00
2022-10-15T02:00:11.108Z,100.00
2022-10-15T02:02:37.597Z,100.00
2022-10-15T02:05:06.453Z,100.00
2022-10-15T02:07:46.723Z,100.00
2022-10-15T02:10:26.923Z,100.00
2022-10-15T02:13:29.169Z,100.00
2022-10-15T02:16:20.036Z,100.00
2022-10-15T02:18:59.208Z,100.00
2022-10-15T02:21:32.387Z,100.00
2022-10-15T02:24:22.747Z,100.00
2022-10-15T02:26:53.365Z,100.00
2022-10-15T02:29:22.266Z,100.00
2022-10-15T02:31:49.913Z,100.00
2022-10-15T02:34:19.779Z,100.00
2022-10-15T02:36:46.664Z,100.00
2022-10-15T02:39:17.860Z,100.00
2022-10-15T02:41:44.826Z,100.00
2022-10-15T02:44:11.277Z,100.00
2022-10-15T02:46:37.742Z,100.00
2022-10-15T02:49:04.292Z,100.00
2022-10-15T02:51:34.952Z,100.00
2022-10-15T02:54:02.761Z,100.00
2022-10-15T02:58:57.003Z,100.00
2022-10-15T03:01:23.522Z,100.00
2022-10-15T03:03:50.068Z,100.00
2022-10-15T03:06:16.613Z,100.00
2022-10-15T03:08:44.255Z,100.00
2022-10-15T03:11:11.352Z,100.00
2022-10-15T03:13:39.474Z,100.00
2022-10-15T03:16:06.954Z,100.00
2022-10-15T03:18:36.759Z,100.00
2022-10-15T03:21:06.409Z,100.00
2022-10-15T03:26:00.363Z,100.00
2022-10-15T03:28:26.910Z,100.00
2022-10-15T03:30:53.453Z,100.00
2022-10-15T03:33:21.921Z,100.00
2022-10-15T03:35:51.840Z,100.00
2022-10-15T03:38:18.326Z,100.00
2022-10-15T03:40:45.571Z,100.00
2022-10-15T03:43:12.047Z,100.00
2022-10-15T03:45:38.501Z,100.00
2022-10-15T03:48:05.309Z,100.00
2022-10-15T03:50:31.798Z,100.00
2022-10-15T03:52:58.294Z,100.00
2022-10-15T03:55:24.745Z,100.00
2022-10-15T03:57:51.368Z,100.00
2022-10-15T04:00:17.825Z,100.00
2022-10-15T04:02:44.312Z,100.00
2022-10-15T04:05:10.761Z,100.00
2022-10-15T04:07:37.255Z,100.00
2022-10-15T04:10:04.039Z,100.00
2022-10-15T04:12:30.494Z,100.00
2022-10-15T04:14:56.944Z,100.00
2022-10-15T04:17:23.419Z,100.00
2022-10-15T04:19:49.978Z,100.00
2022-10-15T04:22:16.572Z,100.00
2022-10-15T04:24:43.064Z,100.00
2022-10-15T04:27:09.621Z,100.00
2022-10-15T04:29:36.123Z,100.00
2022-10-15T04:32:02.636Z,100.00
2022-10-15T04:34:29.188Z,100.00
2022-10-15T04:36:55.961Z,100.00
2022-10-15T04:39:22.501Z,100.00
2022-10-15T04:41:48.969Z,100.00
2022-10-15T04:44:15.446Z,100.00
2022-10-15T04:46:41.994Z,100.00
2022-10-15T04:49:08.459Z,100.00
2022-10-15T04:51:34.917Z,100.00
2022-10-15T04:54:01.754Z,100.00
2022-10-15T04:56:28.442Z,100.00
2022-10-15T04:58:54.904Z,100.00
2022-10-15T05:01:21.452Z,100.00
2022-10-15T05:03:48.832Z,100.00
2022-10-15T05:06:20.615Z,100.00
2022-10-15T05:08:47.726Z,100.00
2022-10-15T05:11:19.472Z,100.00
2022-10-15T05:13:46.229Z,100.00
2022-10-15T05:16:24.776Z,100.00
2022-10-15T05:18:57.635Z,100.00
2022-10-15T05:21:24.491Z,100.00
2022-10-15T05:23:51.409Z,100.00
2022-10-15T05:26:20.060Z,100.00
2022-10-15T05:28:46.710Z,100.00
2022-10-15T05:31:18.942Z,100.00
2022-10-15T05:33:46.557Z,100.00
2022-10-15T05:36:17.175Z,100.00
2022-10-15T05:38:44.641Z,100.00
2022-10-15T05:41:11.101Z,100.00
2022-10-15T05:43:40.433Z,100.00
2022-10-15T05:46:08.369Z,100.00
2022-10-15T05:48:35.138Z,100.00
2022-10-15T05:51:06.542Z,100.00
2022-10-15T05:53:33.124Z,100.00
2022-10-15T05:55:59.726Z,100.00
2022-10-15T05:58:27.538Z,100.00
2022-10-15T06:00:54.998Z,100.00
2022-10-15T06:03:21.517Z,100.00
2022-10-15T06:05:48.187Z,100.00
2022-10-15T06:08:14.704Z,100.00
2022-10-15T06:10:41.287Z,100.00
2022-10-15T06:13:07.824Z,100.00
2022-10-15T06:15:34.295Z,100.00
2022-10-15T06:18:01.005Z,100.00
2022-10-15T06:20:27.945Z,100.00
2022-10-15T06:22:58.562Z,100.00
2022-10-15T06:25:25.566Z,100.00
2022-10-15T06:27:52.287Z,100.00
2022-10-15T06:30:19.441Z,100.00
2022-10-15T06:32:53.086Z,100.00
2022-10-15T06:35:20.062Z,100.00
2022-10-15T06:37:46.558Z,100.00
2022-10-15T06:40:13.643Z,100.00
2022-10-15T06:42:40.413Z,100.00
2022-10-15T06:45:07.668Z,100.00
2022-10-15T06:47:34.207Z,100.00
2022-10-15T06:50:00.665Z,100.00
2022-10-15T06:52:27.164Z,100.00
2022-10-15T06:54:53.637Z,100.00
2022-10-15T06:57:20.299Z,100.00
2022-10-15T06:59:46.765Z,100.00
2022-10-15T07:02:17.661Z,100.00
2022-10-15T07:04:44.124Z,100.00
2022-10-15T07:07:10.593Z,100.00
2022-10-15T07:09:37.067Z,100.00
2022-10-15T07:12:04.175Z,100.00
2022-10-15T07:14:30.626Z,100.00
2022-10-15T07:16:58.214Z,100.00
2022-10-15T07:19:25.308Z,100.00
2022-10-15T07:21:51.816Z,100.00
2022-10-15T07:24:18.291Z,100.00
2022-10-15T07:26:44.750Z,100.00
2022-10-15T07:29:11.230Z,100.00
2022-10-15T07:31:37.908Z,100.00
2022-10-15T07:34:04.424Z,100.00
2022-10-15T07:36:30.877Z,100.00
2022-10-15T07:38:57.350Z,100.00
2022-10-15T07:41:23.876Z,100.00
2022-10-15T07:43:51.870Z,100.00
2022-10-15T07:46:18.325Z,100.00
2022-10-15T07:48:44.815Z,100.00
2022-10-15T07:51:11.680Z,100.00
2022-10-15T07:53:38.352Z,100.00
2022-10-15T07:56:07.850Z,100.00
2022-10-15T07:58:35.382Z,100.00
2022-10-15T08:01:03.196Z,100.00
2022-10-15T08:03:30.600Z,100.00
2022-10-15T08:06:00.611Z,100.00
2022-10-15T08:08:27.643Z,100.00
2022-10-15T08:10:54.163Z,100.00
2022-10-15T08:13:21.079Z,100.00
2022-10-15T08:15:47.659Z,100.00
2022-10-15T08:18:14.180Z,100.00
2022-10-15T08:20:40.662Z,100.00
2022-10-15T08:23:14.607Z,100.00
2022-10-15T08:25:41.952Z,100.00
2022-10-15T08:28:10.689Z,100.00
2022-10-15T08:30:37.837Z,100.00
2022-10-15T08:33:04.307Z,100.00
2022-10-15T08:35:35.189Z,100.00
2022-10-15T08:38:02.276Z,100.00
2022-10-15T08:40:29.609Z,100.00
2022-10-15T08:42:56.476Z,100.00
2022-10-15T08:45:27.426Z,100.00
2022-10-15T08:48:11.496Z,100.00
2022-10-15T08:50:43.572Z,100.00
2022-10-15T08:53:14.715Z,100.00
2022-10-15T08:55:43.882Z,100.00
2022-10-15T08:58:20.346Z,100.00
2022-10-15T09:00:52.099Z,100.00
2022-10-15T09:03:33.945Z,100.00
2022-10-15T09:06:36.355Z,100.00
2022-10-15T09:09:19.530Z,100.00
2022-10-15T09:11:51.337Z,100.00
2022-10-15T09:14:21.408Z,100.00
2022-10-15T09:16:51.043Z,100.00
2022-10-15T09:19:25.082Z,100.00
2022-10-15T09:21:52.586Z,100.00
2022-10-15T09:24:24.350Z,100.00
2022-10-15T09:27:00.317Z,100.00
2022-10-15T09:29:39.455Z,100.00
2022-10-15T09:32:15.712Z,100.00
2022-10-15T09:35:00.356Z,100.00
2022-10-15T09:37:48.852Z,100.00
2022-10-15T09:40:46.152Z,100.00
2022-10-15T09:43:13.555Z,100.00
2022-10-15T09:45:40.078Z,100.00
2022-10-15T09:48:16.116Z,100.00
2022-10-15T09:51:01.844Z,100.00
2022-10-15T09:54:00.707Z,100.00
2022-10-15T09:56:37.556Z,100.00
2022-10-15T09:59:18.930Z,100.00
2022-10-15T10:02:04.107Z,100.00
2022-10-15T10:04:33.945Z,100.00
2022-10-15T10:07:03.488Z,100.00
2022-10-15T10:09:36.431Z,100.00
2022-10-15T10:12:06.059Z,100.00
2022-10-15T10:14:41.341Z,100.00
2022-10-15T10:17:17.153Z,100.00
2022-10-15T10:19:44.705Z,100.00
2022-10-15T10:22:19.484Z,100.00
2022-10-15T10:24:47.037Z,100.00
2022-10-15T10:27:29.572Z,100.00
2022-10-15T10:30:03.544Z,100.00
2022-10-15T10:32:31.828Z,100.00
2022-10-15T10:34:59.969Z,100.00
2022-10-15T10:37:27.218Z,100.00
2022-10-15T10:39:56.522Z,100.00
2022-10-15T10:42:25.972Z,100.00
2022-10-15T10:44:53.389Z,100.00
2022-10-15T10:47:27.670Z,100.00
2022-10-15T10:49:59.031Z,100.00
2022-10-15T10:52:37.272Z,100.00
2022-10-15T10:55:32.980Z,100.00
2022-10-15T10:58:00.030Z,100.00
2022-10-15T11:00:35.750Z,100.00
2022-10-15T11:03:02.309Z,100.00
2022-10-15T11:05:33.950Z,100.00
2022-10-15T11:08:22.120Z,100.00
2022-10-15T11:10:56.771Z,100.00
2022-10-15T11:13:44.332Z,100.00
2022-10-15T11:16:16.767Z,100.00
2022-10-15T11:18:54.348Z,100.00
2022-10-15T11:22:01.705Z,100.00
2022-10-15T11:24:48.491Z,100.00
2022-10-15T11:27:38.431Z,100.00
2022-10-15T11:30:32.056Z,100.00
2022-10-15T11:33:09.287Z,100.00
2022-10-15T11:35:54.226Z,100.00
2022-10-15T11:38:51.937Z,100.00
2022-10-15T11:41:24.297Z,100.00
2022-10-15T11:44:03.887Z,100.00
2022-10-15T11:46:50.986Z,100.00
2022-10-15T11:49:29.474Z,100.00
2022-10-15T11:52:17.962Z,100.00
2022-10-15T11:55:13.392Z,100.00
2022-10-15T11:57:40.667Z,100.00
2022-10-15T12:00:19.942Z,100.00
2022-10-15T12:02:47.112Z,100.00
2022-10-15T12:05:35.289Z,100.00
2022-10-15T12:10:51.916Z,100.00
2022-10-15T12:13:39.645Z,100.00
2022-10-15T12:16:16.120Z,100.00
2022-10-15T12:18:52.183Z,100.00
2022-10-15T12:21:40.002Z,100.00
2022-10-15T12:24:39.524Z,100.00
2022-10-15T12:27:35.997Z,100.00
2022-10-15T12:30:02.774Z,100.00
2022-10-15T12:32:37.325Z,100.00
2022-10-15T12:35:19.831Z,100.00
2022-10-15T12:37:48.093Z,100.00
2022-10-15T12:40:23.444Z,100.00
2022-10-15T12:42:51.233Z,100.00
2022-10-15T12:45:29.526Z,100.00
2022-10-15T12:48:15.512Z,100.00
2022-10-15T12:50:42.537Z,100.00
2022-10-15T12:53:32.559Z,100.00
2022-10-15T12:56:08.422Z,100.00
2022-10-15T12:58:36.038Z,100.00
2022-10-15T13:01:15.590Z,100.00
2022-10-15T13:03:51.146Z,100.00
2022-10-15T13:06:20.355Z,100.00
2022-10-15T13:08:54.333Z,100.00
2022-10-15T13:11:44.235Z,100.00
2022-10-15T13:14:28.990Z,100.00
2022-10-15T13:16:55.927Z,100.00
2022-10-15T13:19:26.694Z,100.00
2022-10-15T13:21:55.887Z,100.00
2022-10-15T13:24:32.715Z,100.00
2022-10-15T13:27:00.548Z,100.00
2022-10-15T13:29:27.830Z,100.00
2022-10-15T13:31:56.314Z,100.00
2022-10-15T13:34:30.503Z,100.00
2022-10-15T13:36:59.215Z,100.00
2022-10-15T13:39:31.496Z,100.00
2022-10-15T13:42:13.034Z,100.00
2022-10-15T13:44:39.762Z,100.00
2022-10-15T13:47:34.155Z,100.00
2022-10-15T13:50:27.579Z,100.00
2022-10-15T13:53:09.285Z,100.00
2022-10-15T13:55:43.691Z,100.00
2022-10-15T13:58:21.258Z,100.00
2022-10-15T14:01:03.785Z,100.00
2022-10-15T14:03:35.826Z,100.00
2022-10-15T14:06:14.915Z,100.00
2022-10-15T14:08:41.534Z,100.00
2022-10-15T14:11:12.067Z,100.00
2022-10-15T14:13:49.435Z,100.00
2022-10-15T14:16:21.781Z,100.00
2022-10-15T14:18:53.919Z,99.23
2022-10-15T14:21:32.572Z,99.11
2022-10-15T14:24:21.474Z,98.79
2022-10-15T14:26:48.293Z,99.05
2022-10-15T14:29:27.539Z,98.20
2022-10-15T14:31:56.222Z,98.15
2022-10-15T14:34:38.883Z,97.87
2022-10-15T14:37:29.594Z,98.23
2022-10-15T14:40:11.058Z,98.25
2022-10-15T14:42:48.534Z,98.03
2022-10-15T14:45:18.053Z,97.26
2022-10-15T14:47:46.829Z,97.38
2022-10-15T14:50:13.331Z,96.50
2022-10-15T14:52:44.851Z,97.45
2022-10-15T14:55:23.914Z,97.04
2022-10-15T14:57:51.205Z,97.20
2022-10-15T15:00:32.529Z,97.21
2022-10-15T15:03:01.606Z,98.27
2022-10-15T15:05:28.965Z,98.36
2022-10-15T15:07:57.116Z,99.63
2022-10-15T15:10:27.363Z,99.97
2022-10-15T15:12:57.139Z,100.00
2022-10-15T15:15:25.526Z,100.00
2022-10-15T15:17:52.038Z,100.00
2022-10-15T15:20:22.479Z,100.00
2022-10-15T15:22:50.932Z,100.00
2022-10-15T15:25:18.410Z,100.00
2022-10-15T15:27:44.867Z,100.00
2022-10-15T15:30:18.136Z,100.00
2022-10-15T15:32:45.349Z,100.00
2022-10-15T15:35:20.090Z,100.00
2022-10-15T15:37:46.540Z,100.00
2022-10-15T15:40:13.038Z,100.00
2022-10-15T15:42:39.845Z,100.00
2022-10-15T15:45:06.856Z,100.00
2022-10-15T15:47:38.255Z,100.00
2022-10-15T15:50:05.043Z,100.00
2022-10-15T15:52:34.004Z,100.00
2022-10-15T15:55:03.214Z,100.00
2022-10-15T15:57:29.675Z,100.00
2022-10-15T15:59:56.382Z,100.00
2022-10-15T16:02:22.906Z,100.00
2022-10-15T16:04:49.422Z,100.00
2022-10-15T16:07:19.001Z,100.00
2022-10-15T16:09:46.145Z,100.00
2022-10-15T16:12:19.112Z,100.00
2022-10-15T16:14:45.865Z,100.00
2022-10-15T16:17:12.356Z,100.00
2022-10-15T16:19:38.845Z,100.00
2022-10-15T16:22:05.308Z,100.00
2022-10-15T16:24:32.657Z,100.00
2022-10-15T16:26:59.375Z,100.00
2022-10-15T16:29:25.838Z,100.00
2022-10-15T16:31:52.289Z,100.00
2022-10-15T16:34:18.769Z,100.00
2022-10-15T16:36:53.432Z,100.00
2022-10-15T16:39:19.919Z,100.00
2022-10-15T16:41:46.399Z,100.00
2022-10-15T16:44:13.068Z,100.00
2022-10-15T16:46:39.565Z,100.00
2022-10-15T16:49:06.042Z,100.00
2022-10-15T16:51:37.432Z,100.00
2022-10-15T16:54:06.434Z,100.00
2022-10-15T16:56:34.374Z,100.00
2022-10-15T16:59:00.892Z,100.00
2022-10-15T17:01:29.249Z,100.00
2022-10-15T17:03:55.859Z,100.00
2022-10-15T17:06:25.551Z,100.00
2022-10-15T17:08:57.162Z,100.00
2022-10-15T17:11:26.112Z,100.00
2022-10-15T17:13:54.678Z,100.00
2022-10-15T17:16:24.876Z,100.00
2022-10-15T17:21:22.046Z,100.00
2022-10-15T17:23:50.286Z,100.00
2022-10-15T17:26:18.820Z,100.00
2022-10-15T17:28:46.820Z,100.00
2022-10-15T17:31:17.036Z,100.00
2022-10-15T17:33:44.743Z,100.00
2022-10-15T17:36:18.501Z,100.00
2022-10-15T17:38:48.820Z,100.00
2022-10-15T17:41:18.911Z,100.00
2022-10-15T17:43:45.840Z,100.00
2022-10-15T17:46:17.587Z,100.00
2022-10-15T17:48:44.578Z,100.00
2022-10-15T17:51:14.305Z,100.00
2022-10-15T17:53:41.300Z,100.00
2022-10-15T17:56:17.916Z,100.00
2022-10-15T17:58:44.759Z,100.00
2022-10-15T18:01:27.983Z,100.00
2022-10-15T18:04:05.297Z,100.00
2022-10-15T18:06:32.241Z,100.00
2022-10-15T18:09:00.151Z,100.00
2022-10-15T18:11:32.595Z,100.00
2022-10-15T18:13:59.124Z,100.00
2022-10-15T18:16:26.095Z,100.00
2022-10-15T18:18:53.614Z,100.00
2022-10-15T18:21:21.647Z,100.00
2022-10-15T18:23:48.194Z,100.00
2022-10-15T18:26:19.552Z,100.00
2022-10-15T18:28:48.639Z,100.00
2022-10-15T18:31:15.487Z,100.00
2022-10-15T18:33:43.926Z,100.00
2022-10-15T18:36:12.424Z,100.00
2022-10-15T18:38:40.697Z,100.00
2022-10-15T18:41:23.739Z,100.00
2022-10-15T18:43:55.741Z,100.00
2022-10-15T18:46:22.607Z,100.00
2022-10-15T18:48:49.795Z,100.00
2022-10-15T18:51:17.266Z,100.00
2022-10-15T18:53:43.951Z,100.00
2022-10-15T18:56:14.848Z,100.00
2022-10-15T18:58:44.675Z,100.00
2022-10-15T19:01:24.720Z,100.00
2022-10-15T19:04:00.284Z,100.00
2022-10-15T19:06:30.571Z,100.00
2022-10-15T19:08:58.050Z,100.00
2022-10-15T19:11:27.853Z,100.00
2022-10-15T19:13:56.762Z,100.00
2022-10-15T19:16:24.594Z,100.00
2022-10-15T19:18:52.010Z,100.00
2022-10-15T19:21:19.910Z,100.00
2022-10-15T19:23:49.447Z,100.00
2022-10-15T19:26:16.323Z,100.00
2022-10-15T19:28:42.838Z,100.00
2022-10-15T19:31:12.416Z,100.00
2022-10-15T19:33:40.214Z,100.00
2022-10-15T19:36:06.835Z,100.00
2022-10-15T19:38:34.006Z,100.00
2022-10-15T19:41:06.467Z,100.00
2022-10-15T19:43:33.359Z,100.00
2022-10-15T19:46:03.976Z,100.00
2022-10-15T19:48:30.847Z,100.00
2022-10-15T19:51:00.930Z,100.00
2022-10-15T19:53:27.375Z,100.00
2022-10-15T19:55:59.458Z,100.00
2022-10-15T19:58:26.498Z,100.00
2022-10-15T20:00:53.708Z,100.00
2022-10-15T20:03:25.558Z,100.00
2022-10-15T20:05:54.275Z,100.00
2022-10-15T20:08:21.042Z,100.00
2022-10-15T20:10:51.487Z,100.00
2022-10-15T20:13:21.847Z,100.00
2022-10-15T20:15:51.123Z,100.00
2022-10-15T20:18:18.519Z,100.00
2022-10-15T20:20:46.000Z,100.00
2022-10-15T20:23:16.550Z,100.00
2022-10-15T20:25:44.149Z,100.00
2022-10-15T20:28:12.431Z,100.00
2022-10-15T20:30:39.912Z,100.00
2022-10-15T20:33:07.245Z,100.00
2022-10-15T20:35:37.553Z,100.00
2022-10-15T20:38:04.884Z,100.00
2022-10-15T20:40:31.883Z,100.00
2022-10-15T20:42:58.844Z,100.00
2022-10-15T20:45:31.421Z,100.00
2022-10-15T20:47:58.141Z,100.00
2022-10-15T20:50:28.482Z,100.00
2022-10-15T20:52:56.543Z,100.00
2022-10-15T20:55:24.408Z,100.00
2022-10-15T20:57:51.296Z,100.00
2022-10-15T21:00:19.187Z,100.00
2022-10-15T21:02:45.923Z,100.00
2022-10-15T21:05:12.484Z,100.00
2022-10-15T21:07:39.100Z,100.00
2022-10-15T21:10:06.126Z,100.00
2022-10-15T21:12:32.658Z,100.00
2022-10-15T21:14:59.539Z,100.00
2022-10-15T21:17:26.274Z,100.00
2022-10-15T21:19:53.121Z,100.00
2022-10-15T21:22:19.741Z,100.00
2022-10-15T21:24:46.321Z,100.00
2022-10-15T21:27:14.381Z,100.00
2022-10-15T21:29:42.730Z,100.00
2022-10-15T21:32:09.329Z,100.00
2022-10-15T21:34:35.879Z,100.00
2022-10-15T21:37:02.842Z,100.00
2022-10-15T21:39:30.375Z,100.00
2022-10-15T21:41:57.857Z,100.00
2022-10-15T21:44:24.388Z,100.00
2022-10-15T21:46:51.052Z,100.00
2022-10-15T21:49:17.879Z,100.00
2022-10-15T21:51:45.019Z,100.00
2022-10-15T21:54:11.615Z,100.00
2022-10-15T21:56:39.169Z,100.00
2022-10-15T21:59:06.010Z,100.00
2022-10-15T22:01:34.817Z,100.00
2022-10-15T22:04:06.720Z,100.00
2022-10-15T22:06:34.141Z,100.00
2022-10-15T22:09:02.250Z,100.00
2022-10-15T22:11:31.488Z,100.00
2022-10-15T22:14:00.662Z,100.00
2022-10-15T22:16:28.122Z,100.00
2022-10-15T22:18:55.436Z,100.00
2022-10-15T22:21:27.716Z,100.00
2022-10-15T22:23:59.779Z,100.00
2022-10-15T22:26:32.287Z,100.00
2022-10-15T22:29:00.902Z,100.00
2022-10-15T22:31:29.064Z,100.00
2022-10-15T22:33:55.730Z,100.00
2022-10-15T22:36:24.673Z,100.00
2022-10-15T22:39:01.464Z,100.00
2022-10-15T22:41:29.433Z,100.00
2022-10-15T22:43:56.032Z,100.00
2022-10-15T22:46:22.495Z,100.00
2022-10-15T22:48:49.388Z,100.00
2022-10-15T22:51:16.432Z,100.00
2022-10-15T22:53:42.954Z,100.00
2022-10-15T22:56:15.075Z,100.00
2022-10-15T22:58:42.057Z,100.00
2022-10-15T23:01:09.758Z,100.00
2022-10-15T23:03:36.726Z,100.00
2022-10-15T23:06:03.637Z,100.00
2022-10-15T23:08:31.170Z,100.00
2022-10-15T23:11:11.717Z,100.00
2022-10-15T23:13:38.890Z,100.00
2022-10-15T23:16:11.419Z,100.00
2022-10-15T23:18:38.193Z,100.00
2022-10-15T23:21:06.485Z,100.00
2022-10-15T23:23:32.943Z,100.00
2022-10-15T23:25:59.428Z,100.00
2022-10-15T23:28:25.963Z,100.00
2022-10-15T23:30:52.467Z,100.00
2022-10-15T23:33:18.978Z,100.00
2022-10-15T23:35:45.464Z,100.00
2022-10-15T23:38:13.816Z,100.00
2022-10-15T23:40:40.259Z,100.00
2022-10-15T23:43:06.995Z,100.00
2022-10-15T23:45:35.712Z,100.00
2022-10-15T23:48:04.668Z,100.00
2022-10-15T23:50:35.302Z,100.00
2022-10-15T23:53:01.835Z,100.00
2022-10-15T23:55:28.578Z,100.00
2022-10-15T23:57:55.035Z,100.00
